sensor_id;sensor_type;location;lat;lon;timestamp;P1;durP1;ratioP1;P2;durP2;ratioP2
56285;SDS011;42191;47.562;9.686;2022-12-18T00:01:13;59.47;;;54.05;;
56285;SDS011;42191;47.562;9.686;2022-12-18T00:03:40;58.88;;;53.40;;
56285;SDS011;42191;47.562;9.686;2022-12-18T00:06:06;61.42;;;55.70;;
56285;SDS011;42191;47.562;9.686;2022-12-18T00:08:34;56.10;;;50.95;;
56285;SDS011;42191;47.562;9.686;2022-12-18T00:11:07;57.47;;;52.10;;
56285;SDS011;42191;47.562;9.686;2022-12-18T00:13:35;59.40;;;54.05;;
56285;SDS011;42191;47.562;9.686;2022-12-18T00:16:02;59.75;;;54.40;;
56285;SDS011;42191;47.562;9.686;2022-12-18T00:18:30;61.90;;;56.20;;
56285;SDS011;42191;47.562;9.686;2022-12-18T00:21:00;58.70;;;53.38;;
56285;SDS011;42191;47.562;9.686;2022-12-18T00:23:29;57.47;;;52.27;;
56285;SDS011;42191;47.562;9.686;2022-12-18T00:25:59;58.95;;;53.47;;
56285;SDS011;42191;47.562;9.686;2022-12-18T00:28:27;58.13;;;52.58;;
56285;SDS011;42191;47.562;9.686;2022-12-18T00:31:03;57.88;;;52.80;;
56285;SDS011;42191;47.562;9.686;2022-12-18T00:33:31;58.95;;;53.10;;
56285;SDS011;42191;47.562;9.686;2022-12-18T00:36:01;58.60;;;53.35;;
56285;SDS011;42191;47.562;9.686;2022-12-18T00:38:42;60.10;;;54.53;;
56285;SDS011;42191;47.562;9.686;2022-12-18T00:41:09;58.25;;;52.95;;
56285;SDS011;42191;47.562;9.686;2022-12-18T00:43:37;58.28;;;53.17;;
56285;SDS011;42191;47.562;9.686;2022-12-18T00:46:04;59.92;;;54.53;;
56285;SDS011;42191;47.562;9.686;2022-12-18T00:48:31;59.25;;;53.95;;
56285;SDS011;42191;47.562;9.686;2022-12-18T00:50:57;59.47;;;54.05;;
56285;SDS011;42191;47.562;9.686;2022-12-18T00:53:23;58.47;;;53.28;;
56285;SDS011;42191;47.562;9.686;2022-12-18T00:55:49;57.40;;;52.28;;
56285;SDS011;42191;47.562;9.686;2022-12-18T00:58:16;61.63;;;56.17;;
56285;SDS011;42191;47.562;9.686;2022-12-18T01:00:42;58.47;;;53.00;;
56285;SDS011;42191;47.562;9.686;2022-12-18T01:03:09;57.75;;;52.40;;
56285;SDS011;42191;47.562;9.686;2022-12-18T01:05:39;58.55;;;53.33;;
56285;SDS011;42191;47.562;9.686;2022-12-18T01:08:06;57.95;;;52.65;;
56285;SDS011;42191;47.562;9.686;2022-12-18T01:10:32;58.03;;;52.88;;
56285;SDS011;42191;47.562;9.686;2022-12-18T01:12:58;56.60;;;51.65;;
56285;SDS011;42191;47.562;9.686;2022-12-18T01:15:24;58.40;;;53.25;;
56285;SDS011;42191;47.562;9.686;2022-12-18T01:17:51;58.22;;;53.08;;
56285;SDS011;42191;47.562;9.686;2022-12-18T01:20:18;58.55;;;53.00;;
56285;SDS011;42191;47.562;9.686;2022-12-18T01:22:44;57.22;;;52.05;;
56285;SDS011;42191;47.562;9.686;2022-12-18T01:25:10;58.38;;;53.17;;
56285;SDS011;42191;47.562;9.686;2022-12-18T01:27:36;57.78;;;52.50;;
56285;SDS011;42191;47.562;9.686;2022-12-18T01:30:03;57.72;;;52.50;;
56285;SDS011;42191;47.562;9.686;2022-12-18T01:32:30;58.75;;;53.63;;
56285;SDS011;42191;47.562;9.686;2022-12-18T01:34:57;57.20;;;52.10;;
56285;SDS011;42191;47.562;9.686;2022-12-18T01:37:24;58.38;;;53.17;;
56285;SDS011;42191;47.562;9.686;2022-12-18T01:39:50;58.33;;;52.97;;
56285;SDS011;42191;47.562;9.686;2022-12-18T01:42:19;58.33;;;52.95;;
56285;SDS011;42191;47.562;9.686;2022-12-18T01:49:56;54.63;;;49.72;;
56285;SDS011;42191;47.562;9.686;2022-12-18T01:52:24;57.78;;;52.40;;
56285;SDS011;42191;47.562;9.686;2022-12-18T01:54:55;56.60;;;51.60;;
56285;SDS011;42191;47.562;9.686;2022-12-18T01:57:22;58.15;;;52.90;;
56285;SDS011;42191;47.562;9.686;2022-12-18T01:59:52;55.63;;;50.65;;
56285;SDS011;42191;47.562;9.686;2022-12-18T02:02:20;56.92;;;51.92;;
56285;SDS011;42191;47.562;9.686;2022-12-18T02:04:47;58.25;;;53.13;;
56285;SDS011;42191;47.562;9.686;2022-12-18T02:07:18;54.42;;;49.58;;
56285;SDS011;42191;47.562;9.686;2022-12-18T02:10:28;55.17;;;50.30;;
56285;SDS011;42191;47.562;9.686;2022-12-18T02:13:20;55.30;;;50.20;;
56285;SDS011;42191;47.562;9.686;2022-12-18T02:18:32;57.60;;;52.60;;
56285;SDS011;42191;47.562;9.686;2022-12-18T02:21:27;57.88;;;52.75;;
56285;SDS011;42191;47.562;9.686;2022-12-18T02:26:58;56.70;;;51.50;;
56285;SDS011;42191;47.562;9.686;2022-12-18T02:30:10;57.13;;;52.15;;
56285;SDS011;42191;47.562;9.686;2022-12-18T02:32:24;54.58;;;49.58;;
56285;SDS011;42191;47.562;9.686;2022-12-18T02:34:52;55.42;;;50.58;;
56285;SDS011;42191;47.562;9.686;2022-12-18T02:37:21;56.55;;;51.38;;
56285;SDS011;42191;47.562;9.686;2022-12-18T02:39:50;59.10;;;53.63;;
56285;SDS011;42191;47.562;9.686;2022-12-18T02:42:18;58.65;;;53.30;;
56285;SDS011;42191;47.562;9.686;2022-12-18T02:44:45;56.70;;;51.67;;
56285;SDS011;42191;47.562;9.686;2022-12-18T02:47:13;54.95;;;50.03;;
56285;SDS011;42191;47.562;9.686;2022-12-18T02:49:58;56.95;;;51.47;;
56285;SDS011;42191;47.562;9.686;2022-12-18T02:55:26;56.58;;;51.75;;
56285;SDS011;42191;47.562;9.686;2022-12-18T02:58:14;54.03;;;49.28;;
56285;SDS011;42191;47.562;9.686;2022-12-18T03:01:13;53.83;;;49.00;;
56285;SDS011;42191;47.562;9.686;2022-12-18T03:03:46;56.42;;;51.47;;
56285;SDS011;42191;47.562;9.686;2022-12-18T03:06:33;56.65;;;51.63;;
56285;SDS011;42191;47.562;9.686;2022-12-18T03:09:09;55.60;;;50.35;;
56285;SDS011;42191;47.562;9.686;2022-12-18T03:11:42;56.20;;;51.10;;
56285;SDS011;42191;47.562;9.686;2022-12-18T03:14:32;56.63;;;51.60;;
56285;SDS011;42191;47.562;9.686;2022-12-18T03:17:02;58.10;;;52.80;;
56285;SDS011;42191;47.562;9.686;2022-12-18T03:19:32;54.58;;;49.55;;
56285;SDS011;42191;47.562;9.686;2022-12-18T03:22:00;54.42;;;49.55;;
56285;SDS011;42191;47.562;9.686;2022-12-18T03:24:29;55.15;;;50.05;;
56285;SDS011;42191;47.562;9.686;2022-12-18T03:27:01;55.08;;;50.13;;
56285;SDS011;42191;47.562;9.686;2022-12-18T03:29:32;54.33;;;49.42;;
56285;SDS011;42191;47.562;9.686;2022-12-18T03:32:10;56.42;;;51.42;;
56285;SDS011;42191;47.562;9.686;2022-12-18T03:34:41;56.78;;;51.63;;
56285;SDS011;42191;47.562;9.686;2022-12-18T03:37:08;53.35;;;48.70;;
56285;SDS011;42191;47.562;9.686;2022-12-18T03:39:35;55.78;;;50.78;;
56285;SDS011;42191;47.562;9.686;2022-12-18T03:47:26;56.10;;;50.92;;
56285;SDS011;42191;47.562;9.686;2022-12-18T03:50:16;53.72;;;49.05;;
56285;SDS011;42191;47.562;9.686;2022-12-18T03:52:51;56.30;;;51.20;;
56285;SDS011;42191;47.562;9.686;2022-12-18T03:55:23;56.38;;;51.47;;
56285;SDS011;42191;47.562;9.686;2022-12-18T03:57:53;55.45;;;50.58;;
56285;SDS011;42191;47.562;9.686;2022-12-18T04:00:20;56.45;;;51.25;;
56285;SDS011;42191;47.562;9.686;2022-12-18T04:02:50;57.15;;;52.22;;
56285;SDS011;42191;47.562;9.686;2022-12-18T04:07:47;55.08;;;49.90;;
56285;SDS011;42191;47.562;9.686;2022-12-18T04:10:14;56.40;;;51.50;;
56285;SDS011;42191;47.562;9.686;2022-12-18T04:12:41;55.60;;;50.40;;
56285;SDS011;42191;47.562;9.686;2022-12-18T04:15:08;55.40;;;50.33;;
56285;SDS011;42191;47.562;9.686;2022-12-18T04:17:35;57.60;;;52.00;;
56285;SDS011;42191;47.562;9.686;2022-12-18T04:20:01;57.13;;;51.72;;
56285;SDS011;42191;47.562;9.686;2022-12-18T04:22:27;54.88;;;49.72;;
56285;SDS011;42191;47.562;9.686;2022-12-18T04:24:53;55.03;;;49.97;;
56285;SDS011;42191;47.562;9.686;2022-12-18T04:27:19;54.97;;;49.95;;
56285;SDS011;42191;47.562;9.686;2022-12-18T04:29:46;56.20;;;51.13;;
56285;SDS011;42191;47.562;9.686;2022-12-18T04:32:12;55.70;;;50.75;;
56285;SDS011;42191;47.562;9.686;2022-12-18T04:34:38;54.20;;;49.40;;
56285;SDS011;42191;47.562;9.686;2022-12-18T04:37:04;54.72;;;49.92;;
56285;SDS011;42191;47.562;9.686;2022-12-18T04:39:30;53.38;;;48.55;;
56285;SDS011;42191;47.562;9.686;2022-12-18T04:41:56;54.65;;;49.88;;
56285;SDS011;42191;47.562;9.686;2022-12-18T04:44:22;54.92;;;50.15;;
56285;SDS011;42191;47.562;9.686;2022-12-18T04:46:48;54.97;;;50.10;;
56285;SDS011;42191;47.562;9.686;2022-12-18T04:49:15;55.08;;;50.30;;
56285;SDS011;42191;47.562;9.686;2022-12-18T04:51:41;54.67;;;49.83;;
56285;SDS011;42191;47.562;9.686;2022-12-18T04:54:07;53.83;;;49.17;;
56285;SDS011;42191;47.562;9.686;2022-12-18T04:56:33;55.05;;;50.25;;
56285;SDS011;42191;47.562;9.686;2022-12-18T04:58:59;54.17;;;49.50;;
56285;SDS011;42191;47.562;9.686;2022-12-18T05:01:25;54.78;;;50.13;;
56285;SDS011;42191;47.562;9.686;2022-12-18T05:03:51;55.05;;;50.50;;
56285;SDS011;42191;47.562;9.686;2022-12-18T05:06:17;54.50;;;50.03;;
56285;SDS011;42191;47.562;9.686;2022-12-18T05:08:43;51.80;;;47.25;;
56285;SDS011;42191;47.562;9.686;2022-12-18T05:11:11;54.60;;;49.90;;
56285;SDS011;42191;47.562;9.686;2022-12-18T05:13:42;51.08;;;46.70;;
56285;SDS011;42191;47.562;9.686;2022-12-18T05:16:09;54.58;;;49.80;;
56285;SDS011;42191;47.562;9.686;2022-12-18T05:18:35;54.58;;;50.00;;
56285;SDS011;42191;47.562;9.686;2022-12-18T05:21:02;56.50;;;51.58;;
56285;SDS011;42191;47.562;9.686;2022-12-18T05:23:28;55.55;;;50.88;;
56285;SDS011;42191;47.562;9.686;2022-12-18T05:25:55;53.65;;;49.13;;
56285;SDS011;42191;47.562;9.686;2022-12-18T05:28:24;54.63;;;50.03;;
56285;SDS011;42191;47.562;9.686;2022-12-18T05:30:53;54.20;;;49.55;;
56285;SDS011;42191;47.562;9.686;2022-12-18T05:33:21;53.15;;;48.50;;
56285;SDS011;42191;47.562;9.686;2022-12-18T05:35:51;54.55;;;49.78;;
56285;SDS011;42191;47.562;9.686;2022-12-18T05:38:19;53.67;;;48.95;;
56285;SDS011;42191;47.562;9.686;2022-12-18T05:40:50;54.90;;;50.35;;
56285;SDS011;42191;47.562;9.686;2022-12-18T05:43:17;55.33;;;50.53;;
56285;SDS011;42191;47.562;9.686;2022-12-18T05:45:44;56.30;;;51.40;;
56285;SDS011;42191;47.562;9.686;2022-12-18T05:48:10;55.17;;;50.35;;
56285;SDS011;42191;47.562;9.686;2022-12-18T05:50:37;53.67;;;49.00;;
56285;SDS011;42191;47.562;9.686;2022-12-18T05:53:04;55.35;;;50.75;;
56285;SDS011;42191;47.562;9.686;2022-12-18T05:55:34;53.47;;;48.95;;
56285;SDS011;42191;47.562;9.686;2022-12-18T05:58:02;55.60;;;50.80;;
56285;SDS011;42191;47.562;9.686;2022-12-18T06:00:30;51.80;;;47.30;;
56285;SDS011;42191;47.562;9.686;2022-12-18T06:02:58;53.08;;;48.72;;
56285;SDS011;42191;47.562;9.686;2022-12-18T06:05:24;54.45;;;49.88;;
56285;SDS011;42191;47.562;9.686;2022-12-18T06:07:51;53.20;;;48.78;;
56285;SDS011;42191;47.562;9.686;2022-12-18T06:10:17;53.80;;;49.17;;
56285;SDS011;42191;47.562;9.686;2022-12-18T06:12:43;52.30;;;47.63;;
56285;SDS011;42191;47.562;9.686;2022-12-18T06:15:10;54.25;;;49.65;;
56285;SDS011;42191;47.562;9.686;2022-12-18T06:17:36;56.53;;;51.63;;
56285;SDS011;42191;47.562;9.686;2022-12-18T06:20:03;54.58;;;49.83;;
56285;SDS011;42191;47.562;9.686;2022-12-18T06:22:31;55.08;;;50.47;;
56285;SDS011;42191;47.562;9.686;2022-12-18T06:24:57;54.50;;;49.78;;
56285;SDS011;42191;47.562;9.686;2022-12-18T06:27:24;54.42;;;49.90;;
56285;SDS011;42191;47.562;9.686;2022-12-18T06:29:50;53.63;;;49.15;;
56285;SDS011;42191;47.562;9.686;2022-12-18T06:32:16;54.25;;;49.50;;
56285;SDS011;42191;47.562;9.686;2022-12-18T06:34:42;53.30;;;48.78;;
56285;SDS011;42191;47.562;9.686;2022-12-18T06:37:09;53.40;;;49.03;;
56285;SDS011;42191;47.562;9.686;2022-12-18T06:39:35;54.17;;;49.42;;
56285;SDS011;42191;47.562;9.686;2022-12-18T06:42:01;53.13;;;48.42;;
56285;SDS011;42191;47.562;9.686;2022-12-18T06:44:28;51.50;;;47.22;;
56285;SDS011;42191;47.562;9.686;2022-12-18T06:46:54;53.88;;;49.10;;
56285;SDS011;42191;47.562;9.686;2022-12-18T06:49:20;54.47;;;49.63;;
56285;SDS011;42191;47.562;9.686;2022-12-18T06:51:46;54.22;;;49.35;;
56285;SDS011;42191;47.562;9.686;2022-12-18T06:54:12;52.38;;;47.88;;
56285;SDS011;42191;47.562;9.686;2022-12-18T06:56:39;53.90;;;49.10;;
56285;SDS011;42191;47.562;9.686;2022-12-18T06:59:05;53.58;;;48.78;;
56285;SDS011;42191;47.562;9.686;2022-12-18T07:01:31;54.67;;;49.97;;
56285;SDS011;42191;47.562;9.686;2022-12-18T07:03:57;52.92;;;48.35;;
56285;SDS011;42191;47.562;9.686;2022-12-18T07:06:24;54.50;;;49.63;;
56285;SDS011;42191;47.562;9.686;2022-12-18T07:08:51;54.97;;;49.95;;
56285;SDS011;42191;47.562;9.686;2022-12-18T07:11:18;54.83;;;49.92;;
56285;SDS011;42191;47.562;9.686;2022-12-18T07:13:45;54.10;;;49.20;;
56285;SDS011;42191;47.562;9.686;2022-12-18T07:16:18;53.85;;;49.05;;
56285;SDS011;42191;47.562;9.686;2022-12-18T07:18:45;53.85;;;49.22;;
56285;SDS011;42191;47.562;9.686;2022-12-18T07:21:13;56.00;;;50.95;;
56285;SDS011;42191;47.562;9.686;2022-12-18T07:23:41;53.95;;;49.20;;
56285;SDS011;42191;47.562;9.686;2022-12-18T07:26:10;54.22;;;49.63;;
56285;SDS011;42191;47.562;9.686;2022-12-18T07:28:38;53.10;;;48.40;;
56285;SDS011;42191;47.562;9.686;2022-12-18T07:31:05;54.03;;;49.20;;
56285;SDS011;42191;47.562;9.686;2022-12-18T07:33:33;56.90;;;51.85;;
56285;SDS011;42191;47.562;9.686;2022-12-18T07:36:01;54.28;;;49.35;;
56285;SDS011;42191;47.562;9.686;2022-12-18T07:38:28;54.97;;;49.92;;
56285;SDS011;42191;47.562;9.686;2022-12-18T07:40:59;52.00;;;47.15;;
56285;SDS011;42191;47.562;9.686;2022-12-18T07:43:26;55.83;;;50.67;;
56285;SDS011;42191;47.562;9.686;2022-12-18T07:45:53;54.63;;;49.90;;
56285;SDS011;42191;47.562;9.686;2022-12-18T07:48:19;55.40;;;50.38;;
56285;SDS011;42191;47.562;9.686;2022-12-18T07:50:45;55.20;;;49.78;;
56285;SDS011;42191;47.562;9.686;2022-12-18T07:53:11;53.35;;;48.53;;
56285;SDS011;42191;47.562;9.686;2022-12-18T07:55:39;54.10;;;49.10;;
56285;SDS011;42191;47.562;9.686;2022-12-18T07:58:06;54.97;;;49.97;;
56285;SDS011;42191;47.562;9.686;2022-12-18T08:00:33;54.42;;;49.70;;
56285;SDS011;42191;47.562;9.686;2022-12-18T08:02:59;54.28;;;49.28;;
56285;SDS011;42191;47.562;9.686;2022-12-18T08:05:26;54.13;;;49.22;;
56285;SDS011;42191;47.562;9.686;2022-12-18T08:07:52;55.25;;;49.97;;
56285;SDS011;42191;47.562;9.686;2022-12-18T08:10:19;54.47;;;49.47;;
56285;SDS011;42191;47.562;9.686;2022-12-18T08:12:48;53.95;;;49.20;;
56285;SDS011;42191;47.562;9.686;2022-12-18T08:15:15;52.65;;;48.10;;
56285;SDS011;42191;47.562;9.686;2022-12-18T08:17:42;53.97;;;49.17;;
56285;SDS011;42191;47.562;9.686;2022-12-18T08:20:08;50.60;;;46.10;;
56285;SDS011;42191;47.562;9.686;2022-12-18T08:22:35;54.10;;;49.30;;
56285;SDS011;42191;47.562;9.686;2022-12-18T08:25:01;53.95;;;48.97;;
56285;SDS011;42191;47.562;9.686;2022-12-18T08:27:28;51.83;;;47.22;;
56285;SDS011;42191;47.562;9.686;2022-12-18T08:29:54;52.13;;;47.30;;
56285;SDS011;42191;47.562;9.686;2022-12-18T08:32:21;53.85;;;48.85;;
56285;SDS011;42191;47.562;9.686;2022-12-18T08:34:48;54.08;;;49.00;;
56285;SDS011;42191;47.562;9.686;2022-12-18T08:37:14;55.65;;;50.65;;
56285;SDS011;42191;47.562;9.686;2022-12-18T08:39:40;51.67;;;47.15;;
56285;SDS011;42191;47.562;9.686;2022-12-18T08:42:06;53.20;;;48.25;;
56285;SDS011;42191;47.562;9.686;2022-12-18T08:44:50;51.55;;;47.10;;
56285;SDS011;42191;47.562;9.686;2022-12-18T08:47:16;52.53;;;47.88;;
56285;SDS011;42191;47.562;9.686;2022-12-18T08:49:43;52.50;;;47.72;;
56285;SDS011;42191;47.562;9.686;2022-12-18T08:52:09;51.53;;;46.85;;
56285;SDS011;42191;47.562;9.686;2022-12-18T08:54:36;52.75;;;48.05;;
56285;SDS011;42191;47.562;9.686;2022-12-18T08:57:02;49.58;;;45.17;;
56285;SDS011;42191;47.562;9.686;2022-12-18T08:59:28;51.22;;;46.80;;
56285;SDS011;42191;47.562;9.686;2022-12-18T09:01:55;51.08;;;46.55;;
56285;SDS011;42191;47.562;9.686;2022-12-18T09:04:21;52.63;;;47.88;;
56285;SDS011;42191;47.562;9.686;2022-12-18T09:06:47;51.55;;;46.90;;
56285;SDS011;42191;47.562;9.686;2022-12-18T09:09:13;51.53;;;46.85;;
56285;SDS011;42191;47.562;9.686;2022-12-18T09:11:40;54.20;;;49.38;;
56285;SDS011;42191;47.562;9.686;2022-12-18T09:14:06;50.90;;;46.40;;
56285;SDS011;42191;47.562;9.686;2022-12-18T09:16:34;52.67;;;47.97;;
56285;SDS011;42191;47.562;9.686;2022-12-18T09:19:00;49.35;;;45.00;;
56285;SDS011;42191;47.562;9.686;2022-12-18T09:21:29;51.13;;;46.58;;
56285;SDS011;42191;47.562;9.686;2022-12-18T09:23:57;51.45;;;46.88;;
56285;SDS011;42191;47.562;9.686;2022-12-18T09:26:24;51.55;;;47.03;;
56285;SDS011;42191;47.562;9.686;2022-12-18T09:28:50;51.95;;;47.35;;
56285;SDS011;42191;47.562;9.686;2022-12-18T09:31:18;53.00;;;47.92;;
56285;SDS011;42191;47.562;9.686;2022-12-18T09:33:45;51.22;;;46.53;;
56285;SDS011;42191;47.562;9.686;2022-12-18T09:36:12;55.35;;;50.10;;
56285;SDS011;42191;47.562;9.686;2022-12-18T09:38:40;53.42;;;48.47;;
56285;SDS011;42191;47.562;9.686;2022-12-18T09:43:44;53.40;;;48.55;;
56285;SDS011;42191;47.562;9.686;2022-12-18T09:46:20;51.80;;;47.17;;
56285;SDS011;42191;47.562;9.686;2022-12-18T09:48:54;51.80;;;47.10;;
56285;SDS011;42191;47.562;9.686;2022-12-18T09:54:02;49.03;;;44.90;;
56285;SDS011;42191;47.562;9.686;2022-12-18T09:56:34;51.08;;;46.80;;
56285;SDS011;42191;47.562;9.686;2022-12-18T09:59:04;49.63;;;45.33;;
56285;SDS011;42191;47.562;9.686;2022-12-18T10:01:31;50.42;;;46.00;;
56285;SDS011;42191;47.562;9.686;2022-12-18T10:03:58;50.40;;;46.13;;
56285;SDS011;42191;47.562;9.686;2022-12-18T10:14:51;51.28;;;46.85;;
56285;SDS011;42191;47.562;9.686;2022-12-18T10:19:56;49.67;;;45.47;;
56285;SDS011;42191;47.562;9.686;2022-12-18T10:25:20;51.63;;;47.33;;
56285;SDS011;42191;47.562;9.686;2022-12-18T10:27:58;50.70;;;46.38;;
56285;SDS011;42191;47.562;9.686;2022-12-18T10:30:33;48.72;;;44.67;;
56285;SDS011;42191;47.562;9.686;2022-12-18T10:33:00;48.42;;;44.33;;
56285;SDS011;42191;47.562;9.686;2022-12-18T10:35:27;50.80;;;46.30;;
56285;SDS011;42191;47.562;9.686;2022-12-18T10:38:01;48.25;;;44.08;;
56285;SDS011;42191;47.562;9.686;2022-12-18T10:48:47;50.70;;;46.22;;
56285;SDS011;42191;47.562;9.686;2022-12-18T10:51:21;49.30;;;44.90;;
56285;SDS011;42191;47.562;9.686;2022-12-18T10:53:52;49.15;;;44.50;;
56285;SDS011;42191;47.562;9.686;2022-12-18T10:56:21;48.40;;;44.15;;
56285;SDS011;42191;47.562;9.686;2022-12-18T10:59:03;51.00;;;46.30;;
56285;SDS011;42191;47.562;9.686;2022-12-18T11:04:16;50.30;;;45.60;;
56285;SDS011;42191;47.562;9.686;2022-12-18T11:06:57;50.03;;;45.60;;
56285;SDS011;42191;47.562;9.686;2022-12-18T11:09:34;49.80;;;45.30;;
56285;SDS011;42191;47.562;9.686;2022-12-18T11:12:04;50.78;;;46.33;;
56285;SDS011;42191;47.562;9.686;2022-12-18T11:14:50;52.42;;;47.67;;
56285;SDS011;42191;47.562;9.686;2022-12-18T11:17:25;50.67;;;46.00;;
56285;SDS011;42191;47.562;9.686;2022-12-18T11:20:07;50.75;;;45.88;;
56285;SDS011;42191;47.562;9.686;2022-12-18T11:22:45;50.88;;;46.28;;
56285;SDS011;42191;47.562;9.686;2022-12-18T11:25:22;51.33;;;46.67;;
56285;SDS011;42191;47.562;9.686;2022-12-18T11:27:53;49.33;;;44.90;;
56285;SDS011;42191;47.562;9.686;2022-12-18T11:33:04;48.72;;;44.33;;
56285;SDS011;42191;47.562;9.686;2022-12-18T11:35:35;51.10;;;46.20;;
56285;SDS011;42191;47.562;9.686;2022-12-18T11:38:46;51.95;;;47.15;;
56285;SDS011;42191;47.562;9.686;2022-12-18T11:41:00;51.28;;;46.80;;
56285;SDS011;42191;47.562;9.686;2022-12-18T11:43:50;50.55;;;45.88;;
56285;SDS011;42191;47.562;9.686;2022-12-18T11:46:29;50.55;;;45.85;;
56285;SDS011;42191;47.562;9.686;2022-12-18T11:49:03;51.08;;;46.63;;
56285;SDS011;42191;47.562;9.686;2022-12-18T11:51:51;51.92;;;47.33;;
56285;SDS011;42191;47.562;9.686;2022-12-18T11:54:40;52.22;;;47.53;;
56285;SDS011;42191;47.562;9.686;2022-12-18T12:00:01;53.35;;;48.45;;
56285;SDS011;42191;47.562;9.686;2022-12-18T12:16:35;52.42;;;47.53;;
56285;SDS011;42191;47.562;9.686;2022-12-18T12:19:37;51.72;;;46.92;;
56285;SDS011;42191;47.562;9.686;2022-12-18T12:22:17;52.05;;;46.92;;
56285;SDS011;42191;47.562;9.686;2022-12-18T12:31:04;51.28;;;46.38;;
56285;SDS011;42191;47.562;9.686;2022-12-18T12:33:42;50.95;;;46.50;;
56285;SDS011;42191;47.562;9.686;2022-12-18T12:39:18;52.45;;;47.80;;
56285;SDS011;42191;47.562;9.686;2022-12-18T12:41:48;50.83;;;45.92;;
56285;SDS011;42191;47.562;9.686;2022-12-18T12:44:43;50.80;;;45.92;;
56285;SDS011;42191;47.562;9.686;2022-12-18T12:47:14;50.00;;;45.20;;
56285;SDS011;42191;47.562;9.686;2022-12-18T12:49:44;53.75;;;48.72;;
56285;SDS011;42191;47.562;9.686;2022-12-18T12:52:13;53.00;;;48.20;;
56285;SDS011;42191;47.562;9.686;2022-12-18T12:55:00;52.35;;;47.58;;
56285;SDS011;42191;47.562;9.686;2022-12-18T13:00:25;49.00;;;44.65;;
56285;SDS011;42191;47.562;9.686;2022-12-18T13:05:40;48.65;;;44.25;;
56285;SDS011;42191;47.562;9.686;2022-12-18T13:08:27;50.38;;;45.88;;
56285;SDS011;42191;47.562;9.686;2022-12-18T13:10:55;49.13;;;44.83;;
56285;SDS011;42191;47.562;9.686;2022-12-18T13:13:50;50.50;;;46.20;;
56285;SDS011;42191;47.562;9.686;2022-12-18T13:16:21;47.95;;;43.53;;
56285;SDS011;42191;47.562;9.686;2022-12-18T13:18:50;48.78;;;44.58;;
56285;SDS011;42191;47.562;9.686;2022-12-18T13:21:21;49.42;;;45.13;;
56285;SDS011;42191;47.562;9.686;2022-12-18T13:23:57;49.83;;;45.45;;
56285;SDS011;42191;47.562;9.686;2022-12-18T13:26:46;47.30;;;43.15;;
56285;SDS011;42191;47.562;9.686;2022-12-18T13:29:14;48.97;;;44.65;;
56285;SDS011;42191;47.562;9.686;2022-12-18T13:32:19;49.22;;;45.13;;
56285;SDS011;42191;47.562;9.686;2022-12-18T13:34:47;50.63;;;46.08;;
56285;SDS011;42191;47.562;9.686;2022-12-18T13:45:48;50.33;;;45.92;;
56285;SDS011;42191;47.562;9.686;2022-12-18T13:48:25;50.20;;;45.90;;
56285;SDS011;42191;47.562;9.686;2022-12-18T13:51:25;50.20;;;45.58;;
56285;SDS011;42191;47.562;9.686;2022-12-18T13:56:22;48.72;;;44.72;;
56285;SDS011;42191;47.562;9.686;2022-12-18T14:01:41;50.95;;;46.75;;
56285;SDS011;42191;47.562;9.686;2022-12-18T14:04:12;47.47;;;43.50;;
56285;SDS011;42191;47.562;9.686;2022-12-18T14:06:49;48.67;;;44.45;;
56285;SDS011;42191;47.562;9.686;2022-12-18T14:09:21;51.35;;;46.88;;
56285;SDS011;42191;47.562;9.686;2022-12-18T14:14:17;48.45;;;44.45;;
56285;SDS011;42191;47.562;9.686;2022-12-18T14:16:45;50.42;;;46.10;;
56285;SDS011;42191;47.562;9.686;2022-12-18T14:19:13;49.08;;;44.72;;
56285;SDS011;42191;47.562;9.686;2022-12-18T14:21:45;48.97;;;44.63;;
56285;SDS011;42191;47.562;9.686;2022-12-18T14:24:19;48.83;;;44.47;;
56285;SDS011;42191;47.562;9.686;2022-12-18T14:26:47;48.08;;;43.92;;
56285;SDS011;42191;47.562;9.686;2022-12-18T14:29:27;50.00;;;45.70;;
56285;SDS011;42191;47.562;9.686;2022-12-18T14:34:33;50.25;;;45.90;;
56285;SDS011;42191;47.562;9.686;2022-12-18T14:36:59;50.42;;;46.15;;
56285;SDS011;42191;47.562;9.686;2022-12-18T14:39:25;49.50;;;45.20;;
56285;SDS011;42191;47.562;9.686;2022-12-18T14:41:51;51.00;;;46.70;;
56285;SDS011;42191;47.562;9.686;2022-12-18T14:44:18;50.25;;;46.03;;
56285;SDS011;42191;47.562;9.686;2022-12-18T14:46:46;50.50;;;46.08;;
56285;SDS011;42191;47.562;9.686;2022-12-18T14:49:27;49.78;;;45.50;;
56285;SDS011;42191;47.562;9.686;2022-12-18T14:52:03;49.88;;;45.55;;
56285;SDS011;42191;47.562;9.686;2022-12-18T14:54:31;48.72;;;44.53;;
56285;SDS011;42191;47.562;9.686;2022-12-18T14:59:40;50.60;;;46.25;;
56285;SDS011;42191;47.562;9.686;2022-12-18T15:07:27;50.70;;;46.40;;
56285;SDS011;42191;47.562;9.686;2022-12-18T15:12:43;51.42;;;47.00;;
56285;SDS011;42191;47.562;9.686;2022-12-18T15:18:01;50.75;;;46.53;;
56285;SDS011;42191;47.562;9.686;2022-12-18T15:20:32;50.53;;;46.25;;
56285;SDS011;42191;47.562;9.686;2022-12-18T15:23:05;52.28;;;47.78;;
56285;SDS011;42191;47.562;9.686;2022-12-18T15:25:42;52.33;;;47.90;;
56285;SDS011;42191;47.562;9.686;2022-12-18T15:28:24;52.00;;;47.63;;
56285;SDS011;42191;47.562;9.686;2022-12-18T15:30:58;48.22;;;44.00;;
56285;SDS011;42191;47.562;9.686;2022-12-18T15:33:26;47.42;;;43.22;;
56285;SDS011;42191;47.562;9.686;2022-12-18T15:36:02;50.58;;;46.40;;
56285;SDS011;42191;47.562;9.686;2022-12-18T15:38:29;50.58;;;45.97;;
56285;SDS011;42191;47.562;9.686;2022-12-18T15:40:56;53.97;;;49.25;;
56285;SDS011;42191;47.562;9.686;2022-12-18T15:43:23;52.17;;;47.45;;
56285;SDS011;42191;47.562;9.686;2022-12-18T15:48:50;54.85;;;49.95;;
56285;SDS011;42191;47.562;9.686;2022-12-18T15:51:18;54.70;;;49.65;;
56285;SDS011;42191;47.562;9.686;2022-12-18T15:53:48;53.08;;;48.30;;
56285;SDS011;42191;47.562;9.686;2022-12-18T15:56:16;52.20;;;47.70;;
56285;SDS011;42191;47.562;9.686;2022-12-18T15:59:01;51.35;;;46.80;;
56285;SDS011;42191;47.562;9.686;2022-12-18T16:01:30;55.25;;;50.25;;
56285;SDS011;42191;47.562;9.686;2022-12-18T16:03:56;51.53;;;47.08;;
56285;SDS011;42191;47.562;9.686;2022-12-18T16:06:23;50.55;;;46.17;;
56285;SDS011;42191;47.562;9.686;2022-12-18T16:08:49;49.58;;;45.28;;
56285;SDS011;42191;47.562;9.686;2022-12-18T16:11:22;51.30;;;46.83;;
56285;SDS011;42191;47.562;9.686;2022-12-18T16:14:19;51.78;;;47.22;;
56285;SDS011;42191;47.562;9.686;2022-12-18T16:16:51;53.70;;;49.00;;
56285;SDS011;42191;47.562;9.686;2022-12-18T16:19:19;52.23;;;47.50;;
56285;SDS011;42191;47.562;9.686;2022-12-18T16:21:46;52.10;;;47.53;;
56285;SDS011;42191;47.562;9.686;2022-12-18T16:24:17;54.25;;;49.78;;
56285;SDS011;42191;47.562;9.686;2022-12-18T16:26:48;54.00;;;49.10;;
56285;SDS011;42191;47.562;9.686;2022-12-18T16:29:16;52.90;;;48.20;;
56285;SDS011;42191;47.562;9.686;2022-12-18T16:31:43;51.85;;;47.35;;
56285;SDS011;42191;47.562;9.686;2022-12-18T16:34:10;51.10;;;46.70;;
56285;SDS011;42191;47.562;9.686;2022-12-18T16:36:56;51.90;;;47.30;;
56285;SDS011;42191;47.562;9.686;2022-12-18T16:39:24;54.40;;;49.55;;
56285;SDS011;42191;47.562;9.686;2022-12-18T16:41:51;52.30;;;47.83;;